createdAt,value
2018-10-19T09:05:11.198Z,44.10
2018-10-19T09:06:11.970Z,48.70
2018-10-19T09:07:15.229Z,48.40
2018-10-19T09:09:16.576Z,47.40
2018-10-19T09:10:17.280Z,46.90
2018-10-19T09:11:17.943Z,48.10
2018-10-19T09:12:40.773Z,44.80
2018-10-19T09:13:41.558Z,45.40
2018-10-19T09:14:42.264Z,46.20
2018-10-19T09:15:42.945Z,44.90
2018-10-19T09:17:43.884Z,43.60
2018-10-19T09:18:44.563Z,44.40
2018-10-19T09:19:45.452Z,43.80
2018-10-19T09:20:46.136Z,44.40
2018-10-19T09:21:46.838Z,42.50
2018-10-19T09:22:47.521Z,42.40
2018-10-19T09:23:48.222Z,42.30
2018-10-19T09:24:48.915Z,42.90
2018-10-19T09:25:49.685Z,44.50
2018-10-19T09:26:50.735Z,42.60
2018-10-19T09:27:53.705Z,42.20
2018-10-19T09:28:57.262Z,42.10
2018-10-19T09:29:57.945Z,43.00
2018-10-19T09:30:58.674Z,42.10
2018-10-19T09:31:59.362Z,42.80
2018-10-19T09:33:00.167Z,42.00
2018-10-19T09:34:01.335Z,43.30
2018-10-19T09:35:02.889Z,42.80
2018-10-19T09:36:03.708Z,41.30
2018-10-19T09:37:04.574Z,41.40
2018-10-19T09:38:05.400Z,41.60
2018-10-19T09:39:08.469Z,42.50
2018-10-19T09:40:09.345Z,42.80
2018-10-19T09:41:11.147Z,42.30
2018-10-19T09:42:17.573Z,42.30
2018-10-19T09:43:18.281Z,41.20
2018-10-19T09:44:18.955Z,42.40
2018-10-19T09:45:19.770Z,41.60
2018-10-19T09:46:24.890Z,41.80
2018-10-19T09:47:25.776Z,42.20
2018-10-19T09:48:26.702Z,41.00
2018-10-19T09:49:27.769Z,42.70
2018-10-19T09:50:28.960Z,41.60
2018-10-19T09:51:29.746Z,42.00
2018-10-19T09:52:31.107Z,41.20
2018-10-19T09:53:33.016Z,42.50
2018-10-19T09:54:35.258Z,41.10
2018-10-19T09:55:36.392Z,40.10
2018-10-19T09:56:37.934Z,43.60
2018-10-19T09:57:38.950Z,40.80
2018-10-19T09:58:40.237Z,42.90
2018-10-19T09:59:40.983Z,42.70
2018-10-19T10:00:41.846Z,43.10
2018-10-19T10:01:43.086Z,41.50
2018-10-19T10:02:43.908Z,42.20
2018-10-19T10:03:45.570Z,41.60
2018-10-19T10:04:46.875Z,43.50
2018-10-19T10:05:49.135Z,44.80
2018-10-19T10:06:50.542Z,42.50
2018-10-19T10:08:13.688Z,41.10
2018-10-19T10:09:14.819Z,41.40
2018-10-19T10:10:36.024Z,42.50
2018-10-19T10:11:36.778Z,41.80
2018-10-19T10:12:37.576Z,41.70
2018-10-19T10:13:38.304Z,42.40
2018-10-19T10:14:40.569Z,41.60
2018-10-19T10:15:55.150Z,42.30
2018-10-19T10:16:55.932Z,42.20
2018-10-19T10:17:56.698Z,43.00
2018-10-19T10:18:57.582Z,41.90
2018-10-19T10:19:58.258Z,42.60
2018-10-19T10:21:05.060Z,40.80
2018-10-19T10:22:10.928Z,42.10
2018-10-19T10:23:11.669Z,40.70
2018-10-19T10:24:12.421Z,42.00
2018-10-19T10:25:13.342Z,42.20
2018-10-19T10:26:13.981Z,41.80
2018-10-19T10:27:15.039Z,41.50
2018-10-19T10:28:15.778Z,42.70
2018-10-19T10:29:16.509Z,42.30
2018-10-19T10:30:20.391Z,41.20
2018-10-19T10:31:23.744Z,41.20
2018-10-19T10:32:46.884Z,41.60
2018-10-19T10:33:47.655Z,40.90
2018-10-19T10:34:48.531Z,41.50
2018-10-19T10:35:49.313Z,41.30
2018-10-19T10:36:51.083Z,40.70
2018-10-19T10:37:52.775Z,40.40
2018-10-19T10:38:53.708Z,40.70
2018-10-19T10:39:54.482Z,40.70
2018-10-19T10:40:55.653Z,42.40
2018-10-19T10:41:58.324Z,41.40
2018-10-19T10:42:59.479Z,40.90
2018-10-19T10:44:00.228Z,43.10
2018-10-19T10:45:11.069Z,41.90
2018-10-19T10:46:11.947Z,41.90
2018-10-19T10:47:12.658Z,41.20
2018-10-19T10:48:13.355Z,41.90
2018-10-19T10:49:15.857Z,40.50
2018-10-19T10:50:17.461Z,42.70
2018-10-19T10:51:18.567Z,41.20
2018-10-19T10:52:19.438Z,42.50
2018-10-19T10:53:20.145Z,40.30
2018-10-19T10:54:21.688Z,40.60
2018-10-19T10:55:23.115Z,41.10
2018-10-19T10:56:25.583Z,40.50
2018-10-19T10:57:29.478Z,41.40
2018-10-19T10:58:31.110Z,40.80
2018-10-19T10:59:32.139Z,42.20
2018-10-19T11:00:33.671Z,41.90
2018-10-19T11:01:39.068Z,41.40
2018-10-19T11:02:40.003Z,42.20
2018-10-19T11:03:43.795Z,40.30
2018-10-19T11:04:45.203Z,40.30
2018-10-19T11:05:47.862Z,42.90
2018-10-19T11:06:48.997Z,41.80
2018-10-19T11:07:49.809Z,43.00
2018-10-19T11:08:50.516Z,41.90
2018-10-19T11:09:51.312Z,41.70
2018-10-19T11:10:52.168Z,42.50
2018-10-19T11:11:53.763Z,41.20
2018-10-19T11:12:55.252Z,40.90
2018-10-19T11:13:55.965Z,40.50
2018-10-19T11:15:01.266Z,41.50
2018-10-19T11:16:02.199Z,40.40
2018-10-19T11:17:02.991Z,41.60
2018-10-19T11:18:05.395Z,40.90
2018-10-19T11:19:06.477Z,41.90
2018-10-19T11:20:08.541Z,40.50
2018-10-19T11:21:09.253Z,41.50
2018-10-19T11:22:10.962Z,40.70
2018-10-19T11:23:11.766Z,39.60
2018-10-19T11:24:13.235Z,41.40
2018-10-19T11:25:17.473Z,41.10
2018-10-19T11:26:18.168Z,41.10
2018-10-19T11:27:18.872Z,41.20
2018-10-19T11:28:19.641Z,39.50
2018-10-19T11:29:20.468Z,42.00
2018-10-19T11:30:21.227Z,41.90
2018-10-19T11:31:22.237Z,42.40
2018-10-19T11:32:23.690Z,41.80
2018-10-19T11:34:24.746Z,41.40
2018-10-19T11:35:25.548Z,42.90
2018-10-19T11:36:26.537Z,41.60
2018-10-19T11:37:27.301Z,42.00
2018-10-19T11:38:28.095Z,40.50
2018-10-19T11:39:30.650Z,40.90
2018-10-19T11:40:31.498Z,41.80
2018-10-19T11:41:42.300Z,41.00
2018-10-19T11:42:43.114Z,41.00
2018-10-19T11:43:45.883Z,41.80
2018-10-19T11:44:46.769Z,42.60
2018-10-19T11:45:47.747Z,42.30
2018-10-19T11:46:48.490Z,41.60
2018-10-19T11:47:49.431Z,41.60
2018-10-19T11:48:52.282Z,40.50
2018-10-19T11:49:57.389Z,40.80
2018-10-19T11:50:58.326Z,41.00
2018-10-19T11:51:59.745Z,41.40
2018-10-19T11:53:00.749Z,41.60
2018-10-19T11:54:02.299Z,39.60
2018-10-19T11:55:03.125Z,41.00
2018-10-19T11:56:03.805Z,41.10
2018-10-19T11:58:05.617Z,41.20
2018-10-19T11:59:08.755Z,41.40
2018-10-19T12:00:10.461Z,41.40
2018-10-19T12:01:11.221Z,40.70
2018-10-19T12:02:12.035Z,40.40
2018-10-19T12:03:12.739Z,40.10
2018-10-19T12:04:14.043Z,41.50
2018-10-19T12:05:15.300Z,41.30
2018-10-19T12:06:18.816Z,40.70
2018-10-19T12:07:19.539Z,39.30
2018-10-19T12:08:20.245Z,40.50
2018-10-19T12:09:21.015Z,40.10
2018-10-19T12:10:24.209Z,41.50
2018-10-19T12:11:26.002Z,39.90
2018-10-19T12:12:26.967Z,39.90
2018-10-19T12:13:34.144Z,40.90
2018-10-19T12:14:38.747Z,40.70
2018-10-19T12:15:40.040Z,39.80
2018-10-19T12:16:44.072Z,40.50
2018-10-19T12:17:45.016Z,40.50
2018-10-19T12:18:45.778Z,40.30
2018-10-19T12:19:46.703Z,40.70
2018-10-19T12:20:51.089Z,39.90
2018-10-19T12:21:52.436Z,39.90
2018-10-19T12:22:53.399Z,39.80
2018-10-19T12:23:54.191Z,40.00
2018-10-19T12:24:56.019Z,39.50
2018-10-19T12:25:56.894Z,40.20
2018-10-19T12:26:57.858Z,40.20
2018-10-19T12:27:59.599Z,38.10
2018-10-19T12:29:00.418Z,38.00
2018-10-19T12:30:01.151Z,39.00
2018-10-19T12:31:04.570Z,38.60
2018-10-19T12:32:05.405Z,38.60
2018-10-19T12:33:06.341Z,38.40
2018-10-19T12:34:07.123Z,38.70
2018-10-19T12:35:08.039Z,39.20
2018-10-19T12:36:09.742Z,39.60
2018-10-19T12:37:11.784Z,39.60
2018-10-19T12:38:12.557Z,40.00
2018-10-19T12:39:13.365Z,38.20
2018-10-19T12:40:15.315Z,38.70
2018-10-19T12:41:16.104Z,39.70
2018-10-19T12:42:16.792Z,39.80
2018-10-19T12:43:19.041Z,39.20
2018-10-19T12:44:19.929Z,38.20
2018-10-19T12:45:20.652Z,39.80
2018-10-19T12:46:21.395Z,39.90
2018-10-19T12:47:22.315Z,39.90
2018-10-19T12:48:23.186Z,39.50
2018-10-19T12:49:24.319Z,39.30
2018-10-19T12:50:25.521Z,41.30
2018-10-19T12:51:26.248Z,38.10
2018-10-19T12:52:27.019Z,39.60
2018-10-19T12:53:27.997Z,39.40
2018-10-19T12:54:28.856Z,39.20
2018-10-19T12:55:29.519Z,38.80
2018-10-19T12:56:30.290Z,39.00
2018-10-19T12:57:31.947Z,39.10
2018-10-19T12:58:32.984Z,38.70
2018-10-19T12:59:36.609Z,38.70
2018-10-19T13:00:39.542Z,39.50
2018-10-19T13:01:41.451Z,40.00
2018-10-19T13:02:43.650Z,38.20
2018-10-19T13:03:44.645Z,38.00
2018-10-19T13:04:45.357Z,40.00
2018-10-19T13:05:46.128Z,38.50
2018-10-19T13:06:47.568Z,38.80
2018-10-19T13:07:49.391Z,40.50
2018-10-19T13:08:50.125Z,39.40
2018-10-19T13:09:51.858Z,38.80
2018-10-19T13:10:53.818Z,37.10
2018-10-19T13:11:54.548Z,36.70
2018-10-19T13:12:55.385Z,38.40
2018-10-19T14:43:49.846Z,32.00
2018-10-19T14:44:51.312Z,39.80
2018-10-19T14:45:51.974Z,40.40
2018-10-19T14:47:08.098Z,41.30
2018-10-19T14:48:14.166Z,38.30
2018-10-19T14:54:37.177Z,36.60
